M.sahin — TCUH — position and weather

sailwx.info

Track history (hours):
 
Tides and Currents Weather Stations Pressure Air Temp Water Temp Dewpoint Dewpoint Depression Visibility Wind Speed Wind Dir Waves Ship Positions

M.sahin

Last reported at 2017-Oct-28 18:53 UTC. Time now 2017-Nov-20 17:43 UTC.
Position N 36°07' W 007°09'.
Warning: this ship's position is 22 days out of date.

Length 87 m; draft 5.8 m.

Type: Cargo ship. MMSI: 271000450.

Date/timePositionNaut miles runAvg speedWind from/ knotsBaromVisibWave heightAir tempDewpointWater temp
2017-Oct-28 18:53N 36°07' W 007°09'3 6.0
2017-Oct-28 18:27N 36°07' W 007°12'3 6.6
2017-Oct-28 18:00N 36°08' W 007°15'4 7.1
2017-Oct-28 17:30N 36°09' W 007°20'4 7.9
2017-Oct-28 17:00N 36°10' W 007°24'4 8.5
2017-Oct-28 16:28N 36°11' W 007°30'5 8.8
2017-Oct-28 15:55N 36°12' W 007°36'5 8.7
2017-Oct-28 15:24N 36°14' W 007°41'11 8.7
2017-Oct-28 14:10N 36°17' W 007°54'1 8.7
2017-Oct-28 14:00N 36°17' W 007°55'5 8.6
2017-Oct-28 13:27N 36°19' W 008°01'6 8.5
2017-Oct-28 12:46N 36°20' W 008°08'3 8.6
2017-Oct-28 12:25N 36°21' W 008°12'4 8.7
2017-Oct-28 11:58N 36°23' W 008°16'4 8.6
2017-Oct-28 11:29N 36°24' W 008°21'6 8.5
2017-Oct-28 10:43N 36°26' W 008°29'2 8.5
2017-Oct-28 10:30N 36°26' W 008°31'4 8.6
2017-Oct-28 10:00N 36°27' W 008°36'4 8.4
2017-Oct-28 09:30N 36°29' W 008°41'4 8.3
2017-Oct-28 09:00N 36°30' W 008°46'4 8.4
2017-Oct-28 08:30N 36°31' W 008°51'4 8.7
2017-Oct-28 08:00N 36°32' W 008°57'4 8.7
2017-Oct-28 07:29N 36°33' W 009°02'4 8.6
2017-Oct-28 07:00N 36°33' W 009°07'4 8.7
2017-Oct-28 06:30N 36°34' W 009°12'4 8.4
2017-Oct-28 06:00N 36°35' W 009°17'5 9.5
2017-Oct-28 05:29N 36°39' W 009°21'5 9.9
2017-Oct-28 05:00N 36°42' W 009°26'5 9.7
2017-Oct-28 04:30N 36°46' W 009°30'5 9.6
2017-Oct-28 04:00N 36°50' W 009°33'5 9.8
2017-Oct-28 03:30N 36°55' W 009°34'5 9.7
2017-Oct-28 03:00N 36°60' W 009°36'5 9.5
2017-Oct-28 02:30N 37°04' W 009°37'5 9.5
2017-Oct-28 02:00N 37°09' W 009°38'5 9.4
2017-Oct-28 01:30N 37°14' W 009°39'5 9.4
2017-Oct-28 01:00N 37°18' W 009°41'5 9.3
2017-Oct-28 00:30N 37°23' W 009°42'5 9.4
2017-Oct-28 00:00N 37°27' W 009°43'5 9.3
2017-Oct-27 23:30N 37°32' W 009°44'5 9.1
2017-Oct-27 23:00N 37°36' W 009°46'4 9.0
2017-Oct-27 22:30N 37°41' W 009°47'5 9.0
2017-Oct-27 22:00N 37°45' W 009°48'4 9.0
2017-Oct-27 21:30N 37°49' W 009°50'4 8.9
2017-Oct-27 21:00N 37°54' W 009°51'5 9.1
2017-Oct-27 20:30N 37°58' W 009°52'5 9.0
2017-Oct-27 20:00N 38°03' W 009°53'4 8.8
2017-Oct-27 19:30N 38°07' W 009°54'4 8.9
2017-Oct-27 19:00N 38°11' W 009°55'5 9.2
2017-Oct-27 18:30N 38°16' W 009°57'5 9.5
2017-Oct-27 18:00N 38°20' W 009°59'5 9.2
2017-Oct-27 17:30N 38°25' W 010°00'5 9.3
2017-Oct-27 17:00N 38°29' W 010°02'5 9.5
2017-Oct-27 16:30N 38°34' W 010°03'5 9.2
2017-Oct-27 16:00N 38°38' W 010°04'5 9.1
2017-Oct-27 15:30N 38°43' W 010°05'5 9.4
2017-Oct-27 15:00N 38°48' W 010°05'5 9.3
2017-Oct-27 14:30N 38°52' W 010°05'5 9.2
2017-Oct-27 14:00N 38°57' W 010°05'5 9.3
2017-Oct-27 13:30N 39°02' W 010°04'5 9.8
2017-Oct-27 13:00N 39°06' W 010°03'5 9.6
2017-Oct-27 12:30N 39°11' W 010°03'5 9.6
2017-Oct-27 12:00N 39°16' W 010°03'5 9.4
2017-Oct-27 11:30N 39°21' W 010°03'5 9.0
2017-Oct-27 11:00N 39°25' W 010°03'4 9.0
2017-Oct-27 10:30N 39°30' W 010°04'5 9.0
2017-Oct-27 10:00N 39°34' W 010°04'6 9.0
2017-Oct-27 09:22N 39°40' W 010°05'  
2017-Oct-21 18:14N 39°26' W 009°45'2 7.5
2017-Oct-21 18:00N 39°24' W 009°45'4 7.4
2017-Oct-21 17:30N 39°20' W 009°46'4 7.4
2017-Oct-21 17:00N 39°17' W 009°46'4 7.4
2017-Oct-21 16:30N 39°13' W 009°47'4 7.9
2017-Oct-21 16:00N 39°09' W 009°47'4 8.2
2017-Oct-21 15:30N 39°05' W 009°48'4 8.4
2017-Oct-21 15:00N 39°01' W 009°49'8 8.1
2017-Oct-21 14:00N 38°53' W 009°51'4 8.2
2017-Oct-21 13:30N 38°49' W 009°52'4 7.8
2017-Oct-21 13:00N 38°45' W 009°51'4 7.1
2017-Oct-21 12:30N 38°42' W 009°50'4 7.8
2017-Oct-21 12:00N 38°38' W 009°48'4 8.2
2017-Oct-21 11:30N 38°34' W 009°47'4 8.5
2017-Oct-21 11:00N 38°30' W 009°46'4 8.6
2017-Oct-21 10:30N 38°26' W 009°45'4 8.6
2017-Oct-21 10:00N 38°21' W 009°43'4 8.4
2017-Oct-21 09:30N 38°17' W 009°42'4 8.0
2017-Oct-21 09:00N 38°13' W 009°41'4 7.8
2017-Oct-21 08:29N 38°09' W 009°41'6 7.9
2017-Oct-21 07:47N 38°04' W 009°40'3 7.7
2017-Oct-21 07:24N 38°01' W 009°39'16 8.2
2017-Oct-21 05:24N 37°45' W 009°35'4 9.0
2017-Oct-21 05:00N 37°41' W 009°34'52 8.7
2017-Oct-20 23:03N 36°51' W 009°16'6 8.7
2017-Oct-20 22:23N 36°47' W 009°11'13 8.2
2017-Oct-20 20:48N 36°42' W 008°56'3 8.5
2017-Oct-20 20:30N 36°42' W 008°53'4 8.3
2017-Oct-20 20:00N 36°41' W 008°48'4 8.4
2017-Oct-20 19:28N 36°40' W 008°42'4 8.5
2017-Oct-20 19:00N 36°40' W 008°37'9 8.8
2017-Oct-20 17:59N 36°39' W 008°26'6 8.9
2017-Oct-20 17:22N 36°37' W 008°19'135 8.5
2017-Oct-20 01:27N 35°58' W 005°39'3 7.9
2017-Oct-20 01:01N 35°59' W 005°35'4 7.4
2017-Oct-20 00:30N 35°60' W 005°30'4 7.2
2017-Oct-20 00:00N 36°00' W 005°26'3 6.4
2017-Oct-19 23:30N 36°01' W 005°22'3 5.9
2017-Oct-19 23:01N 36°02' W 005°18'3 5.8
2017-Oct-19 22:30N 36°02' W 005°15'3 6.1
2017-Oct-19 22:00N 36°03' W 005°11'  
Track history (hours):
 
Tides and Currents Weather Stations Pressure Air Temp Water Temp Dewpoint Dewpoint Depression Visibility Wind Speed Wind Dir Waves Ship Positions

M.sahin

Last reported at 2017-Oct-28 18:53 UTC. Time now 2017-Nov-20 17:43 UTC.
Position N 36°07' W 007°09'.
Warning: this ship's position is 22 days out of date.

Length 87 m; draft 5.8 m.

Type: Cargo ship. MMSI: 271000450.

Date/timePositionNaut miles runAvg speedWind from/ knotsBaromVisibWave heightAir tempDewpointWater temp
2017-Oct-28 18:53N 36°07' W 007°09'3 6.0
2017-Oct-28 18:27N 36°07' W 007°12'3 6.6
2017-Oct-28 18:00N 36°08' W 007°15'4 7.1
2017-Oct-28 17:30N 36°09' W 007°20'4 7.9
2017-Oct-28 17:00N 36°10' W 007°24'4 8.5
2017-Oct-28 16:28N 36°11' W 007°30'5 8.8
2017-Oct-28 15:55N 36°12' W 007°36'5 8.7
2017-Oct-28 15:24N 36°14' W 007°41'11 8.7
2017-Oct-28 14:10N 36°17' W 007°54'1 8.7
2017-Oct-28 14:00N 36°17' W 007°55'5 8.6
2017-Oct-28 13:27N 36°19' W 008°01'6 8.5
2017-Oct-28 12:46N 36°20' W 008°08'3 8.6
2017-Oct-28 12:25N 36°21' W 008°12'4 8.7
2017-Oct-28 11:58N 36°23' W 008°16'4 8.6
2017-Oct-28 11:29N 36°24' W 008°21'6 8.5
2017-Oct-28 10:43N 36°26' W 008°29'2 8.5
2017-Oct-28 10:30N 36°26' W 008°31'4 8.6
2017-Oct-28 10:00N 36°27' W 008°36'4 8.4
2017-Oct-28 09:30N 36°29' W 008°41'4 8.3
2017-Oct-28 09:00N 36°30' W 008°46'4 8.4
2017-Oct-28 08:30N 36°31' W 008°51'4 8.7
2017-Oct-28 08:00N 36°32' W 008°57'4 8.7
2017-Oct-28 07:29N 36°33' W 009°02'4 8.6
2017-Oct-28 07:00N 36°33' W 009°07'4 8.7
2017-Oct-28 06:30N 36°34' W 009°12'4 8.4
2017-Oct-28 06:00N 36°35' W 009°17'5 9.5
2017-Oct-28 05:29N 36°39' W 009°21'5 9.9
2017-Oct-28 05:00N 36°42' W 009°26'5 9.7
2017-Oct-28 04:30N 36°46' W 009°30'5 9.6
2017-Oct-28 04:00N 36°50' W 009°33'5 9.8
2017-Oct-28 03:30N 36°55' W 009°34'5 9.7
2017-Oct-28 03:00N 36°60' W 009°36'5 9.5
2017-Oct-28 02:30N 37°04' W 009°37'5 9.5
2017-Oct-28 02:00N 37°09' W 009°38'5 9.4
2017-Oct-28 01:30N 37°14' W 009°39'5 9.4
2017-Oct-28 01:00N 37°18' W 009°41'5 9.3
2017-Oct-28 00:30N 37°23' W 009°42'5 9.4
2017-Oct-28 00:00N 37°27' W 009°43'5 9.3
2017-Oct-27 23:30N 37°32' W 009°44'5 9.1
2017-Oct-27 23:00N 37°36' W 009°46'4 9.0
2017-Oct-27 22:30N 37°41' W 009°47'5 9.0
2017-Oct-27 22:00N 37°45' W 009°48'4 9.0
2017-Oct-27 21:30N 37°49' W 009°50'4 8.9
2017-Oct-27 21:00N 37°54' W 009°51'5 9.1
2017-Oct-27 20:30N 37°58' W 009°52'5 9.0
2017-Oct-27 20:00N 38°03' W 009°53'4 8.8
2017-Oct-27 19:30N 38°07' W 009°54'4 8.9
2017-Oct-27 19:00N 38°11' W 009°55'5 9.2
2017-Oct-27 18:30N 38°16' W 009°57'5 9.5
2017-Oct-27 18:00N 38°20' W 009°59'5 9.2
2017-Oct-27 17:30N 38°25' W 010°00'5 9.3
2017-Oct-27 17:00N 38°29' W 010°02'5 9.5
2017-Oct-27 16:30N 38°34' W 010°03'5 9.2
2017-Oct-27 16:00N 38°38' W 010°04'5 9.1
2017-Oct-27 15:30N 38°43' W 010°05'5 9.4
2017-Oct-27 15:00N 38°48' W 010°05'5 9.3
2017-Oct-27 14:30N 38°52' W 010°05'5 9.2
2017-Oct-27 14:00N 38°57' W 010°05'5 9.3
2017-Oct-27 13:30N 39°02' W 010°04'5 9.8
2017-Oct-27 13:00N 39°06' W 010°03'5 9.6
2017-Oct-27 12:30N 39°11' W 010°03'5 9.6
2017-Oct-27 12:00N 39°16' W 010°03'5 9.4
2017-Oct-27 11:30N 39°21' W 010°03'5 9.0
2017-Oct-27 11:00N 39°25' W 010°03'4 9.0
2017-Oct-27 10:30N 39°30' W 010°04'5 9.0
2017-Oct-27 10:00N 39°34' W 010°04'6 9.0
2017-Oct-27 09:22N 39°40' W 010°05'  
2017-Oct-21 18:14N 39°26' W 009°45'2 7.5
2017-Oct-21 18:00N 39°24' W 009°45'4 7.4
2017-Oct-21 17:30N 39°20' W 009°46'4 7.4
2017-Oct-21 17:00N 39°17' W 009°46'4 7.4
2017-Oct-21 16:30N 39°13' W 009°47'4 7.9
2017-Oct-21 16:00N 39°09' W 009°47'4 8.2
2017-Oct-21 15:30N 39°05' W 009°48'4 8.4
2017-Oct-21 15:00N 39°01' W 009°49'8 8.1
2017-Oct-21 14:00N 38°53' W 009°51'4 8.2
2017-Oct-21 13:30N 38°49' W 009°52'4 7.8
2017-Oct-21 13:00N 38°45' W 009°51'4 7.1
2017-Oct-21 12:30N 38°42' W 009°50'4 7.8
2017-Oct-21 12:00N 38°38' W 009°48'4 8.2
2017-Oct-21 11:30N 38°34' W 009°47'4 8.5
2017-Oct-21 11:00N 38°30' W 009°46'4 8.6
2017-Oct-21 10:30N 38°26' W 009°45'4 8.6
2017-Oct-21 10:00N 38°21' W 009°43'4 8.4
2017-Oct-21 09:30N 38°17' W 009°42'4 8.0
2017-Oct-21 09:00N 38°13' W 009°41'4 7.8
2017-Oct-21 08:29N 38°09' W 009°41'6 7.9
2017-Oct-21 07:47N 38°04' W 009°40'3 7.7
2017-Oct-21 07:24N 38°01' W 009°39'16 8.2
2017-Oct-21 05:24N 37°45' W 009°35'4 9.0
2017-Oct-21 05:00N 37°41' W 009°34'52 8.7
2017-Oct-20 23:03N 36°51' W 009°16'6 8.7
2017-Oct-20 22:23N 36°47' W 009°11'13 8.2
2017-Oct-20 20:48N 36°42' W 008°56'3 8.5
2017-Oct-20 20:30N 36°42' W 008°53'4 8.3
2017-Oct-20 20:00N 36°41' W 008°48'4 8.4
2017-Oct-20 19:28N 36°40' W 008°42'4 8.5
2017-Oct-20 19:00N 36°40' W 008°37'9 8.8
2017-Oct-20 17:59N 36°39' W 008°26'6 8.9
2017-Oct-20 17:22N 36°37' W 008°19'135 8.5
2017-Oct-20 01:27N 35°58' W 005°39'3 7.9
2017-Oct-20 01:01N 35°59' W 005°35'4 7.4
2017-Oct-20 00:30N 35°60' W 005°30'4 7.2
2017-Oct-20 00:00N 36°00' W 005°26'3 6.4
2017-Oct-19 23:30N 36°01' W 005°22'3 5.9
2017-Oct-19 23:01N 36°02' W 005°18'3 5.8
2017-Oct-19 22:30N 36°02' W 005°15'3 6.1
2017-Oct-19 22:00N 36°03' W 005°11'  

Dump ship's entire track history